Time;durP1;ratioP1;P1;durP2;ratioP2;P2;SDS_P1;SDS_P2;PMS_P1;PMS_P2;Temp;Humidity;BMP_temperature;BMP_pressure;BME280_temperature;BME280_humidity;BME280_pressure;Samples;Min_cycle;Max_cycle;Signal;HPM_P1;HPM_P2
2021/12/28 00:00:22;;;;;;;;;3.00;1.00;;;;;12.59;75.29;98820.44;5074030;28;45390;-58
2021/12/28 00:02:49;;;;;;;;;1.00;1.00;;;;;12.61;75.30;98807.00;5073711;28;46272;-56
2021/12/28 00:05:15;;;;;;;;;0.00;0.00;;;;;12.62;75.22;98808.75;5072539;28;45295;-57
2021/12/28 00:07:41;;;;;;;;;1.00;1.00;;;;;12.64;75.60;98815.91;5073611;28;45346;-58
2021/12/28 00:10:10;;;;;;;;;1.67;1.67;;;;;12.44;74.59;98775.06;5073647;28;45406;-57
2021/12/28 00:12:38;;;;;;;;;1.00;0.00;;;;;12.59;75.19;98792.72;5073369;28;46168;-56
2021/12/28 00:15:19;;;;;;;;;2.00;2.00;;;;;12.62;76.01;98787.34;5073428;28;45533;-58
2021/12/28 00:18:04;;;;;;;;;3.00;0.67;;;;;12.63;75.69;98790.00;5074985;28;45339;-55
2021/12/28 00:20:35;;;;;;;;;1.33;0.00;;;;;12.53;76.30;98775.84;5073712;28;45433;-58
2021/12/28 00:23:04;;;;;;;;;0.00;0.00;;;;;12.46;75.88;98768.81;5073273;28;45344;-59
2021/12/28 00:25:29;;;;;;;;;0.67;0.67;;;;;12.45;76.31;98769.69;5075797;28;45455;-57
2021/12/28 00:27:55;;;;;;;;;2.00;0.67;;;;;12.48;75.78;98772.34;5062204;28;45512;-59
2021/12/28 00:30:21;;;;;;;;;2.00;1.00;;;;;12.45;76.61;98764.34;5081290;28;45201;-57
2021/12/28 00:32:52;;;;;;;;;1.00;1.00;;;;;12.49;75.74;98778.59;5079683;28;45434;-56
2021/12/28 00:35:17;;;;;;;;;2.00;1.00;;;;;12.45;76.29;98753.63;5074339;28;45326;-58
2021/12/28 00:37:43;;;;;;;;;3.00;2.00;;;;;12.47;76.00;98751.84;5076534;28;45489;-58
2021/12/28 00:40:09;;;;;;;;;1.00;1.00;;;;;12.50;76.13;98759.81;5076935;28;45472;-58
2021/12/28 00:42:34;;;;;;;;;0.67;0.00;;;;;12.48;77.13;98755.38;5078462;28;46555;-56
2021/12/28 00:44:59;;;;;;;;;0.33;0.33;;;;;12.48;76.06;98758.06;5076634;28;45385;-58
2021/12/28 00:47:25;;;;;;;;;0.00;0.00;;;;;12.47;76.57;98757.19;5076109;28;46897;-58
2021/12/28 00:49:50;;;;;;;;;0.00;0.00;;;;;12.52;76.54;98762.47;5077197;28;45568;-58
2021/12/28 00:52:15;;;;;;;;;0.67;0.67;;;;;12.54;75.92;98758.00;5076422;28;45404;-59
2021/12/28 00:54:41;;;;;;;;;1.33;1.00;;;;;12.52;76.52;98751.75;5076786;28;45406;-58
2021/12/28 00:57:06;;;;;;;;;0.33;0.33;;;;;12.56;75.83;98763.34;5076300;27;45853;-58
2021/12/28 00:59:32;;;;;;;;;1.67;1.33;;;;;12.59;76.88;98768.63;5062245;28;45539;-60
2021/12/28 01:01:57;;;;;;;;;2.00;0.00;;;;;12.60;76.86;98773.97;5056026;28;45325;-59
2021/12/28 01:04:24;;;;;;;;;0.50;0.50;;;;;12.62;76.51;98773.94;5056165;28;45462;-59
2021/12/28 01:06:50;;;;;;;;;0.00;0.00;;;;;12.60;76.49;98773.09;5056560;28;46123;-58
2021/12/28 01:09:15;;;;;;;;;0.00;0.00;;;;;12.57;75.94;98768.63;5056765;28;45605;-59
2021/12/28 01:11:42;;;;;;;;;0.00;0.00;;;;;12.56;77.22;98768.69;5074249;28;45592;-58
2021/12/28 01:14:08;;;;;;;;;0.00;0.00;;;;;12.51;77.14;98764.25;5087425;28;45249;-57
2021/12/28 01:16:33;;;;;;;;;0.00;0.00;;;;;12.54;76.75;98774.06;5093888;28;45498;-59
2021/12/28 01:18:58;;;;;;;;;0.00;0.00;;;;;12.54;77.12;98774.94;5083090;28;45144;-56
2021/12/28 01:21:24;;;;;;;;;0.33;0.33;;;;;12.53;77.02;98775.84;5094537;28;45590;-56
2021/12/28 01:23:49;;;;;;;;;0.00;0.00;;;;;12.43;77.30;98766.16;5092343;28;45144;-57
2021/12/28 01:26:15;;;;;;;;;0.00;0.00;;;;;12.52;76.88;98771.41;5074637;28;45182;-59
2021/12/28 01:28:40;;;;;;;;;0.00;0.00;;;;;12.49;77.55;98768.75;5087529;28;45485;-56
2021/12/28 01:31:06;;;;;;;;;2.00;0.00;;;;;12.53;77.86;98769.59;5078181;28;45925;-56
2021/12/28 01:33:31;;;;;;;;;0.00;0.00;;;;;12.42;77.67;98752.78;5092738;28;45137;-59
2021/12/28 01:35:58;;;;;;;;;0.00;0.00;;;;;12.54;76.79;98771.38;5090751;27;45128;-57
2021/12/28 01:38:24;;;;;;;;;0.00;0.00;;;;;12.55;77.48;98770.47;5093767;28;44983;-59
2021/12/28 01:40:49;;;;;;;;;0.00;0.00;;;;;12.55;77.27;98767.78;5091762;28;45306;-55
2021/12/28 01:43:18;;;;;;;;;0.00;0.00;;;;;12.53;77.05;98775.84;5093195;28;45096;-57
2021/12/28 01:45:51;;;;;;;;;0.00;0.00;;;;;12.49;77.65;98776.81;5092482;28;44906;-58
2021/12/28 01:48:22;;;;;;;;;0.00;0.00;;;;;12.52;77.78;98778.53;5092072;28;45860;-57
2021/12/28 01:50:52;;;;;;;;;0.00;0.00;;;;;12.51;76.88;98774.97;5082526;28;45171;-57
2021/12/28 01:53:18;;;;;;;;;0.00;0.00;;;;;12.50;77.82;98788.38;5072909;28;45184;-57
2021/12/28 01:55:47;;;;;;;;;0.00;0.00;;;;;12.49;77.27;98787.50;5071027;28;44989;-58
2021/12/28 01:58:14;;;;;;;;;0.00;0.00;;;;;12.38;77.26;98783.22;5070759;28;45526;-58
2021/12/28 02:00:41;;;;;;;;;0.00;0.00;;;;;12.54;76.83;98807.09;5085758;28;47081;-59
2021/12/28 02:03:15;;;;;;;;;0.00;0.00;;;;;12.59;77.80;98820.44;5088172;28;45496;-57
2021/12/28 02:05:41;;;;;;;;;0.00;0.00;;;;;12.62;76.16;98816.81;5090302;28;45521;-57
2021/12/28 02:08:08;;;;;;;;;1.67;0.00;;;;;12.65;76.58;98848.91;5093074;28;45433;-59
2021/12/28 02:10:34;;;;;;;;;1.00;0.00;;;;;12.65;76.89;98839.06;5091666;28;45228;-56
2021/12/28 02:12:59;;;;;;;;;0.67;0.67;;;;;12.75;76.00;98849.69;5092072;28;44944;-57
2021/12/28 02:15:25;;;;;;;;;1.33;0.00;;;;;12.78;75.67;98852.34;5078280;28;45552;-55
2021/12/28 02:17:51;;;;;;;;;0.00;0.00;;;;;12.77;75.52;98850.53;5070659;28;45208;-59
2021/12/28 02:20:19;;;;;;;;;0.00;0.00;;;;;12.80;75.40;98854.09;5085407;28;45374;-56
2021/12/28 02:22:45;;;;;;;;;0.00;0.00;;;;;12.71;74.80;98844.38;5071675;28;45330;-60
2021/12/28 02:25:12;;;;;;;;;0.00;0.00;;;;;12.83;74.13;98874.59;5055240;28;45309;-59
2021/12/28 02:27:38;;;;;;;;;0.00;0.00;;;;;12.81;74.22;98879.09;5070650;28;45251;-58
2021/12/28 02:30:06;;;;;;;;;0.00;0.00;;;;;12.84;74.95;98873.69;5077179;28;46203;-57
2021/12/28 02:32:32;;;;;;;;;0.00;0.00;;;;;12.82;74.14;98888.88;5072331;28;45521;-58
2021/12/28 02:34:58;;;;;;;;;0.00;0.00;;;;;12.78;73.78;98882.69;5055086;28;45478;-56
2021/12/28 02:37:24;;;;;;;;;0.67;0.00;;;;;12.76;74.50;98892.53;5055301;28;45484;-57
2021/12/28 02:39:51;;;;;;;;;0.00;0.00;;;;;12.74;73.58;98899.72;5054881;28;47058;-59
2021/12/28 02:42:19;;;;;;;;;0.00;0.00;;;;;12.75;73.86;98919.34;5036402;28;45398;-57
2021/12/28 02:44:44;;;;;;;;;0.00;0.00;;;;;12.72;74.50;98925.66;5071210;28;45413;-59
2021/12/28 02:47:15;;;;;;;;;0.00;0.00;;;;;12.71;73.93;98927.44;5075235;28;45441;-59
2021/12/28 02:49:40;;;;;;;;;0.00;0.00;;;;;12.68;74.84;98927.47;5072522;28;45645;-58
2021/12/28 02:52:09;;;;;;;;;0.33;0.00;;;;;12.67;74.84;98936.41;5061746;28;45289;-58
2021/12/28 02:54:37;;;;;;;;;0.00;0.00;;;;;12.67;74.82;98944.47;5055342;28;45367;-59
2021/12/28 02:57:02;;;;;;;;;0.00;0.00;;;;;12.70;74.31;98948.88;5076974;27;45370;-58
2021/12/28 02:59:27;;;;;;;;;0.00;0.00;;;;;12.67;74.63;98952.50;5071263;28;45372;-56
2021/12/28 03:01:53;;;;;;;;;1.00;1.00;;;;;12.67;75.20;98959.63;5074740;28;45575;-58
2021/12/28 03:04:20;;;;;;;;;0.00;0.00;;;;;12.66;74.30;98965.91;5075193;28;45439;-56
2021/12/28 03:06:45;;;;;;;;;0.00;0.00;;;;;12.65;73.75;98969.47;5062988;28;45470;-58
2021/12/28 03:09:11;;;;;;;;;0.00;0.00;;;;;12.63;73.83;98977.53;5074633;28;45371;-58
2021/12/28 03:11:36;;;;;;;;;0.00;0.00;;;;;12.64;74.42;98975.75;5074385;28;45369;-60
2021/12/28 03:14:03;;;;;;;;;0.67;0.67;;;;;12.64;74.45;98983.81;5074758;28;45339;-58
2021/12/28 03:16:31;;;;;;;;;0.00;0.00;;;;;12.63;74.73;98977.53;5074231;28;45510;-59
2021/12/28 03:18:56;;;;;;;;;0.00;0.00;;;;;12.59;74.22;98973.13;5074388;28;45545;-56
2021/12/28 03:21:23;;;;;;;;;0.00;0.00;;;;;12.67;74.58;98973.03;5074504;28;45638;-60
2021/12/28 03:23:50;;;;;;;;;0.67;0.00;;;;;12.62;74.49;98954.34;5075198;28;45521;-60
2021/12/28 03:26:16;;;;;;;;;1.00;0.00;;;;;12.73;73.29;98972.97;5075297;28;45468;-58
2021/12/28 03:28:44;;;;;;;;;0.00;0.00;;;;;12.66;74.45;98972.16;5058744;28;45540;-59
2021/12/28 03:31:13;;;;;;;;;0.00;0.00;;;;;12.72;73.52;98988.16;5053735;28;45475;-58
2021/12/28 03:33:41;;;;;;;;;0.67;0.00;;;;;12.76;74.47;98978.28;5054151;28;45362;-56
2021/12/28 03:36:08;;;;;;;;;0.00;0.00;;;;;12.80;73.94;98988.09;5054843;28;45442;-59
2021/12/28 03:38:37;;;;;;;;;0.00;0.00;;;;;12.78;74.09;98976.47;5067623;28;45584;-60
2021/12/28 03:41:07;;;;;;;;;0.00;0.00;;;;;12.84;73.32;98980.91;5080438;28;45390;-59
2021/12/28 03:43:33;;;;;;;;;0.67;0.67;;;;;12.94;73.65;98992.41;5073784;28;45423;-60
2021/12/28 03:45:58;;;;;;;;;0.00;0.00;;;;;12.91;72.76;98991.50;5077653;28;45430;-57
2021/12/28 03:48:24;;;;;;;;;0.00;0.00;;;;;12.92;73.67;98997.78;5074028;28;45542;-59
2021/12/28 03:50:49;;;;;;;;;2.00;1.00;;;;;12.99;72.98;98999.47;5056069;28;45520;-56
2021/12/28 03:53:15;;;;;;;;;0.00;0.00;;;;;12.95;73.44;99000.44;5071123;28;45546;-59
2021/12/28 03:55:40;;;;;;;;;0.00;0.00;;;;;13.00;72.72;99006.63;5074235;27;45371;-60
2021/12/28 03:58:06;;;;;;;;;0.00;0.00;;;;;12.99;72.64;99007.53;5073661;28;46180;-57
2021/12/28 04:00:35;;;;;;;;;0.67;0.00;;;;;13.00;73.00;99011.06;5076255;28;45339;-60
2021/12/28 04:03:01;;;;;;;;;0.00;0.00;;;;;12.99;73.18;98998.59;5061015;28;45487;-60
2021/12/28 04:05:27;;;;;;;;;0.00;0.00;;;;;12.95;73.11;99004.88;5057546;28;45693;-56
2021/12/28 04:07:52;;;;;;;;;0.00;0.00;;;;;12.88;73.24;98987.97;5060209;28;45678;-54
2021/12/28 04:10:19;;;;;;;;;0.00;0.00;;;;;13.04;72.20;99016.38;5059285;28;45653;-60
2021/12/28 04:12:45;;;;;;;;;0.00;0.00;;;;;13.03;72.94;99016.41;5076847;28;45646;-56
2021/12/28 04:15:14;;;;;;;;;6.00;1.33;;;;;13.03;72.78;99013.72;5080203;28;45392;-59
2021/12/28 04:17:40;;;;;;;;;1.00;0.00;;;;;13.02;72.93;99012.84;5077157;28;47140;-59
2021/12/28 04:20:14;;;;;;;;;2.00;0.00;;;;;13.03;72.50;99017.31;5077216;28;45349;-58
2021/12/28 04:22:40;;;;;;;;;0.00;0.00;;;;;13.00;72.56;99014.66;5077873;28;45314;-57
2021/12/28 04:25:08;;;;;;;;;0.00;0.00;;;;;13.04;72.17;99013.72;5062372;28;45384;-59
2021/12/28 04:27:34;;;;;;;;;1.33;0.00;;;;;13.02;72.07;99018.22;5056406;28;46761;-60
2021/12/28 04:29:59;;;;;;;;;0.00;0.00;;;;;12.91;72.75;99007.59;5056987;28;45527;-59
2021/12/28 04:32:25;;;;;;;;;1.00;0.00;;;;;13.00;72.33;99036.13;5071844;28;45220;-57
2021/12/28 04:34:51;;;;;;;;;1.00;0.00;;;;;12.89;72.09;99021.94;5072865;28;45092;-56
2021/12/28 04:37:16;;;;;;;;;1.00;0.00;;;;;12.59;72.12;98964.19;5091784;28;45065;-57
2021/12/28 04:39:42;;;;;;;;;2.00;0.33;;;;;13.07;71.99;99039.63;5092329;28;45035;-61
2021/12/28 04:42:07;;;;;;;;;0.00;0.00;;;;;13.06;72.13;99041.38;5094016;28;45706;-56
2021/12/28 04:44:33;;;;;;;;;2.00;0.00;;;;;13.12;72.77;99039.56;5086328;28;45202;-58
2021/12/28 04:46:59;;;;;;;;;0.00;0.00;;;;;13.14;72.49;99043.97;5093428;28;45290;-56
2021/12/28 04:49:27;;;;;;;;;3.67;0.00;;;;;13.15;72.12;99035.06;5092264;28;45298;-58
2021/12/28 04:51:53;;;;;;;;;1.33;0.00;;;;;13.16;71.84;99030.56;5092271;28;45283;-58
2021/12/28 04:54:19;;;;;;;;;2.00;1.00;;;;;13.16;71.77;99041.28;5077474;28;45255;-59
2021/12/28 04:56:46;;;;;;;;;0.00;0.00;;;;;13.14;72.02;99032.38;5054276;28;45993;-58
2021/12/28 04:59:12;;;;;;;;;0.00;0.00;;;;;13.12;71.54;99045.81;5072805;28;45119;-58
2021/12/28 05:01:38;;;;;;;;;4.67;1.00;;;;;13.12;71.58;99044.94;5072832;28;45562;-59
2021/12/28 05:04:05;;;;;;;;;0.00;0.00;;;;;13.12;70.83;99034.19;5087958;28;45131;-57
2021/12/28 05:06:31;;;;;;;;;0.33;0.00;;;;;13.12;71.57;99045.81;5092564;28;45676;-59
2021/12/28 05:08:56;;;;;;;;;2.33;1.00;;;;;13.14;71.67;99059.19;5085864;28;45473;-58
2021/12/28 05:11:22;;;;;;;;;4.00;0.67;;;;;13.12;71.35;99051.16;5085386;27;45115;-56
2021/12/28 05:13:48;;;;;;;;;0.00;0.00;;;;;13.14;71.34;99060.06;5071866;28;45092;-56
2021/12/28 05:16:15;;;;;;;;;2.33;1.00;;;;;13.15;70.78;99067.22;5071205;28;45659;-56
2021/12/28 05:18:41;;;;;;;;;2.00;1.00;;;;;13.13;70.87;99063.66;5070580;28;45008;-57
2021/12/28 05:21:06;;;;;;;;;2.00;0.00;;;;;13.18;69.95;99083.28;5074909;28;45570;-57
2021/12/28 05:23:32;;;;;;;;;1.00;0.00;;;;;13.19;70.39;99081.47;5093184;28;45081;-56
2021/12/28 05:25:57;;;;;;;;;0.33;0.33;;;;;13.22;70.40;99086.81;5092303;28;45472;-57
2021/12/28 05:28:22;;;;;;;;;0.33;0.33;;;;;13.24;70.73;99085.00;5090759;28;45119;-58
2021/12/28 05:30:48;;;;;;;;;1.00;1.00;;;;;13.25;70.56;99090.34;5092250;28;45306;-56
2021/12/28 05:33:13;;;;;;;;;2.00;0.00;;;;;13.14;69.69;99086.88;5089793;28;45091;-59
2021/12/28 05:35:39;;;;;;;;;2.00;1.00;;;;;13.26;70.17;99096.59;5054016;28;47415;-56
2021/12/28 05:38:04;;;;;;;;;0.67;0.67;;;;;13.26;69.92;99097.50;5070039;28;45100;-56
2021/12/28 05:40:29;;;;;;;;;0.00;0.00;;;;;13.27;69.57;99104.63;5070532;28;45180;-54
2021/12/28 05:42:55;;;;;;;;;1.00;0.00;;;;;13.26;70.46;99100.19;5072015;28;45010;-57
2021/12/28 05:45:20;;;;;;;;;0.00;0.00;;;;;13.18;69.62;99087.75;5087358;28;45751;-58
2021/12/28 05:47:45;;;;;;;;;1.00;0.00;;;;;13.29;69.68;99115.34;5091435;28;45197;-56
2021/12/28 05:50:11;;;;;;;;;1.33;0.00;;;;;13.29;69.40;99112.66;5091965;28;45144;-56
2021/12/28 05:52:37;;;;;;;;;2.00;0.00;;;;;13.32;69.47;99120.69;5080505;28;45230;-56
2021/12/28 05:55:03;;;;;;;;;0.00;0.00;;;;;13.32;69.58;99117.09;5072133;28;45736;-57
2021/12/28 05:57:30;;;;;;;;;1.00;1.00;;;;;13.31;69.44;99116.19;5078158;28;45025;-57
2021/12/28 05:59:56;;;;;;;;;0.67;0.00;;;;;13.34;68.64;99121.56;5077959;28;45586;-57
2021/12/28 06:02:21;;;;;;;;;2.00;0.67;;;;;13.33;68.70;99111.75;5082347;28;45368;-56
2021/12/28 06:04:46;;;;;;;;;3.00;0.00;;;;;13.34;68.59;99126.03;5084117;28;45509;-57
2021/12/28 06:07:12;;;;;;;;;2.00;0.00;;;;;13.34;68.01;99132.28;5078316;28;45529;-57
2021/12/28 06:09:37;;;;;;;;;0.67;0.67;;;;;13.33;68.18;99133.22;5078485;28;45370;-57
2021/12/28 06:12:03;;;;;;;;;1.33;0.00;;;;;13.24;68.05;99118.06;5073761;28;45568;-56
2021/12/28 06:14:28;;;;;;;;;1.67;0.00;;;;;13.33;68.43;99138.59;5078151;28;45465;-58
2021/12/28 06:16:53;;;;;;;;;0.00;0.00;;;;;13.30;67.89;99126.94;5062353;28;45449;-59
2021/12/28 06:19:19;;;;;;;;;2.00;0.67;;;;;13.35;68.43;99139.44;5060730;28;45677;-56
2021/12/28 06:21:45;;;;;;;;;1.00;0.33;;;;;13.36;68.34;99138.53;5085786;27;45275;-56
2021/12/28 06:24:10;;;;;;;;;4.00;2.67;;;;;13.35;68.30;99138.56;5082426;28;45659;-56
2021/12/28 06:26:36;;;;;;;;;1.00;0.00;;;;;13.35;67.34;99158.22;5070903;28;45295;-58
2021/12/28 06:29:05;;;;;;;;;1.00;1.00;;;;;13.35;67.93;99160.91;5073223;28;45473;-56
2021/12/28 06:31:30;;;;;;;;;2.33;1.00;;;;;13.29;67.51;99163.59;5074353;28;45476;-59
2021/12/28 06:33:57;;;;;;;;;3.00;1.00;;;;;13.34;67.46;99164.47;5085973;28;45565;-57
2021/12/28 06:36:23;;;;;;;;;0.00;0.00;;;;;13.30;67.60;99177.91;5090645;28;45183;-60
2021/12/28 06:38:49;;;;;;;;;1.00;1.00;;;;;13.28;67.40;99194.91;5076264;28;45474;-58
2021/12/28 06:41:14;;;;;;;;;0.33;0.33;;;;;13.23;67.30;99193.16;5075107;28;45554;-60
2021/12/28 06:43:40;;;;;;;;;1.67;1.00;;;;;13.19;67.47;99208.41;5074802;28;45251;-56
2021/12/28 06:46:05;;;;;;;;;4.33;2.67;;;;;13.16;68.01;99207.53;5082552;28;45310;-58
2021/12/28 06:48:30;;;;;;;;;3.33;0.67;;;;;13.12;67.21;99220.09;5079599;28;45212;-57
2021/12/28 06:50:56;;;;;;;;;2.00;2.00;;;;;13.02;66.89;99208.56;5074918;28;45557;-57
2021/12/28 06:53:21;;;;;;;;;3.00;1.00;;;;;13.07;66.74;99213.88;5072539;28;46113;-55
2021/12/28 06:55:47;;;;;;;;;4.00;1.00;;;;;13.06;67.44;99223.69;5074619;27;45591;-56
2021/12/28 06:58:12;;;;;;;;;9.33;3.33;;;;;13.07;66.47;99217.44;5072442;28;45225;-58
2021/12/28 07:00:39;;;;;;;;;2.67;1.00;;;;;13.07;66.71;99220.13;5079861;28;45664;-58
2021/12/28 07:03:05;;;;;;;;;2.00;1.00;;;;;13.07;66.91;99201.34;5072126;28;46518;-59
2021/12/28 07:05:30;;;;;;;;;5.00;2.33;;;;;13.09;66.89;99207.59;5074365;28;45504;-55
2021/12/28 07:07:56;;;;;;;;;5.00;1.00;;;;;13.09;65.93;99212.06;5089570;28;45419;-56
2021/12/28 07:10:22;;;;;;;;;3.33;1.67;;;;;12.95;66.17;99192.53;5085777;28;44992;-59
2021/12/28 07:12:50;;;;;;;;;8.00;1.00;;;;;13.12;67.12;99224.56;5089719;28;45825;-55
2021/12/28 07:15:17;;;;;;;;;3.00;1.00;;;;;13.14;66.12;99222.75;5084493;28;45275;-58
2021/12/28 07:17:42;;;;;;;;;1.00;1.00;;;;;13.14;66.66;99214.72;5090146;28;44982;-58
2021/12/28 07:20:08;;;;;;;;;4.67;1.67;;;;;13.12;66.63;99205.81;5088437;28;45191;-61
2021/12/28 07:22:34;;;;;;;;;2.33;1.33;;;;;13.23;66.67;99228.94;5089475;28;45406;-58
2021/12/28 07:24:59;;;;;;;;;1.33;1.00;;;;;13.23;66.04;99228.94;5083675;28;45306;-58
2021/12/28 07:27:25;;;;;;;;;2.00;0.00;;;;;13.24;66.23;99237.88;5070306;28;45046;-57
2021/12/28 07:29:50;;;;;;;;;2.00;0.33;;;;;13.21;66.48;99232.53;5070221;28;45048;-57
2021/12/28 07:32:16;;;;;;;;;0.33;0.33;;;;;13.26;65.94;99241.41;5070393;28;45605;-58
2021/12/28 07:34:41;;;;;;;;;0.67;0.00;;;;;13.28;66.15;99242.28;5066912;28;45039;-59
2021/12/28 07:37:06;;;;;;;;;1.67;1.67;;;;;13.28;66.14;99247.66;5069930;28;45389;-56
2021/12/28 07:39:32;;;;;;;;;1.67;1.67;;;;;13.27;66.45;99249.44;5070385;28;45018;-56
2021/12/28 07:41:57;;;;;;;;;3.33;0.33;;;;;13.27;65.90;99249.44;5069825;28;45108;-57
2021/12/28 07:44:23;;;;;;;;;2.67;2.33;;;;;13.30;65.95;99255.69;5081220;28;45080;-58
2021/12/28 07:46:48;;;;;;;;;3.00;0.00;;;;;13.28;66.36;99261.97;5089460;28;45020;-56
2021/12/28 07:49:13;;;;;;;;;4.67;2.33;;;;;13.27;66.48;99265.53;5089705;28;45138;-58
2021/12/28 07:51:39;;;;;;;;;4.00;1.00;;;;;13.29;66.56;99270.91;5088345;28;45604;-57
2021/12/28 07:54:04;;;;;;;;;0.33;0.00;;;;;13.27;66.95;99281.63;5090297;28;44968;-58
2021/12/28 07:56:30;;;;;;;;;3.33;2.00;;;;;13.18;66.38;99280.81;5090606;27;45251;-58
2021/12/28 07:58:55;;;;;;;;;3.67;2.00;;;;;13.26;66.61;99298.66;5088464;28;44929;-57
2021/12/28 08:01:20;;;;;;;;;5.00;2.00;;;;;13.11;67.31;99269.25;5087199;28;46018;-59
2021/12/28 08:03:46;;;;;;;;;1.00;1.00;;;;;13.15;66.72;99270.09;5088756;28;44890;-56
2021/12/28 08:06:11;;;;;;;;;3.00;0.00;;;;;13.25;67.01;99296.84;5089366;28;45112;-57
2021/12/28 08:08:37;;;;;;;;;1.00;1.00;;;;;13.23;67.75;99306.72;5089216;28;45023;-57
2021/12/28 08:11:02;;;;;;;;;4.00;2.67;;;;;13.28;67.56;99312.94;5086957;28;45596;-56
2021/12/28 08:13:28;;;;;;;;;3.33;2.00;;;;;13.30;68.26;99312.91;5070150;28;44922;-58
2021/12/28 08:15:55;;;;;;;;;2.00;2.00;;;;;13.32;68.18;99312.91;5068791;28;45619;-58
2021/12/28 08:18:20;;;;;;;;;7.33;2.67;;;;;13.26;68.76;99309.38;5058909;28;45551;-58
2021/12/28 08:20:46;;;;;;;;;2.33;2.00;;;;;13.32;68.95;99313.81;5060761;28;45456;-58
2021/12/28 08:23:11;;;;;;;;;2.33;1.33;;;;;12.84;68.94;99246.22;5076408;28;45435;-56
2021/12/28 08:25:37;;;;;;;;;4.67;1.00;;;;;13.28;69.18;99331.72;5088085;28;45377;-56
2021/12/28 08:28:04;;;;;;;;;2.67;1.33;;;;;13.27;69.42;99335.28;5089793;28;45262;-58
2021/12/28 08:30:31;;;;;;;;;2.00;2.00;;;;;13.30;69.68;99338.84;5088606;28;45117;-56
2021/12/28 08:32:56;;;;;;;;;3.00;3.00;;;;;13.24;70.42;99342.47;5087907;28;45155;-57
2021/12/28 08:35:22;;;;;;;;;2.00;1.00;;;;;13.21;72.02;99345.16;5089668;28;44986;-56
2021/12/28 08:37:47;;;;;;;;;2.00;1.00;;;;;13.16;72.11;99366.63;5089500;28;45339;-56
2021/12/28 08:40:17;;;;;;;;;0.00;0.00;;;;;13.12;73.83;99367.56;5073991;28;46240;-58
2021/12/28 08:42:42;;;;;;;;;2.00;2.00;;;;;13.14;73.81;99384.53;5068868;28;45378;-55
2021/12/28 08:45:09;;;;;;;;;1.00;1.00;;;;;13.15;74.40;99374.69;5084773;27;45333;-56
2021/12/28 08:47:35;;;;;;;;;0.00;0.00;;;;;13.19;74.49;99368.44;5091957;28;45003;-59
2021/12/28 08:50:01;;;;;;;;;2.67;1.00;;;;;13.14;74.49;99373.81;5079251;28;45012;-57
2021/12/28 08:52:27;;;;;;;;;3.33;0.67;;;;;13.19;74.26;99382.72;5069881;28;45225;-60
2021/12/28 08:54:52;;;;;;;;;2.00;1.33;;;;;13.18;74.82;99374.69;5068914;28;45414;-58
2021/12/28 08:57:20;;;;;;;;;6.00;2.00;;;;;13.18;74.49;99367.53;5072671;28;44871;-58
2021/12/28 08:59:45;;;;;;;;;3.00;2.00;;;;;13.19;74.32;99371.09;5087315;28;45991;-56
2021/12/28 09:02:11;;;;;;;;;2.00;0.67;;;;;13.14;73.76;99371.13;5092045;28;44928;-57
2021/12/28 09:04:42;;;;;;;;;0.67;0.67;;;;;13.15;73.87;99386.34;5090559;28;45131;-57
2021/12/28 09:07:08;;;;;;;;;3.00;0.00;;;;;13.14;72.64;99373.81;5092158;28;44957;-53
2021/12/28 09:09:33;;;;;;;;;4.00;1.33;;;;;13.09;72.02;99367.59;5091620;28;45540;-59
2021/12/28 09:11:58;;;;;;;;;3.00;1.00;;;;;13.12;71.02;99372.94;5091302;28;45165;-59
2021/12/28 09:14:24;;;;;;;;;0.00;0.00;;;;;13.08;69.81;99380.13;5090900;28;45194;-58
2021/12/28 09:16:49;;;;;;;;;6.00;3.00;;;;;13.03;70.27;99379.25;5090803;28;45188;-58
2021/12/28 09:19:14;;;;;;;;;1.67;1.67;;;;;13.08;69.66;99388.16;5088877;28;45633;-56
2021/12/28 09:21:40;;;;;;;;;2.00;1.00;;;;;13.03;69.62;99367.63;5080753;28;44905;-56
2021/12/28 09:24:06;;;;;;;;;3.00;3.00;;;;;13.12;69.28;99377.41;5070870;28;44997;-58
2021/12/28 09:26:33;;;;;;;;;1.00;1.00;;;;;13.11;68.52;99373.81;5071753;28;44929;-57
2021/12/28 09:28:58;;;;;;;;;4.00;1.00;;;;;13.12;68.10;99383.66;5072142;28;45771;-57
2021/12/28 09:31:24;;;;;;;;;2.00;1.67;;;;;13.13;67.18;99387.22;5077618;28;45214;-56
2021/12/28 09:33:49;;;;;;;;;3.33;2.00;;;;;13.08;67.20;99377.44;5091305;28;45154;-56
2021/12/28 09:36:16;;;;;;;;;4.33;1.67;;;;;13.12;66.12;99375.63;5090836;28;44973;-56
2021/12/28 09:38:44;;;;;;;;;2.00;2.00;;;;;13.13;65.82;99377.38;5065028;28;45508;-60
2021/12/28 09:41:10;;;;;;;;;2.67;2.00;;;;;13.01;66.10;99364.94;5067998;28;45360;-56
2021/12/28 09:43:36;;;;;;;;;5.00;2.33;;;;;13.20;65.63;99397.00;5067410;28;45635;-58
2021/12/28 09:46:02;;;;;;;;;3.00;3.00;;;;;13.21;65.05;99402.34;5074832;28;45373;-59
2021/12/28 09:48:27;;;;;;;;;3.00;2.00;;;;;13.23;64.49;99407.72;5074513;28;46458;-57
2021/12/28 09:50:53;;;;;;;;;0.33;0.00;;;;;13.14;63.44;99389.91;5075096;28;45325;-57
2021/12/28 09:53:18;;;;;;;;;4.67;3.00;;;;;13.02;64.17;99376.59;5062880;28;45521;-56
2021/12/28 09:55:44;;;;;;;;;5.00;2.67;;;;;13.22;63.29;99405.97;5074923;27;45559;-57
2021/12/28 09:58:10;;;;;;;;;5.00;2.00;;;;;13.26;62.86;99413.97;5066549;28;46134;-58
2021/12/28 10:00:35;;;;;;;;;5.33;3.00;;;;;13.26;62.90;99410.38;5062899;28;45617;-57
2021/12/28 10:03:01;;;;;;;;;4.33;3.67;;;;;13.06;62.01;99367.59;5059008;28;45390;-56
2021/12/28 10:05:27;;;;;;;;;3.00;3.00;;;;;13.30;62.22;99416.63;5066548;28;45468;-62
2021/12/28 10:07:57;;;;;;;;;3.33;3.00;;;;;13.30;60.63;99428.25;5065742;28;46235;-61
2021/12/28 10:10:28;;;;;;;;;3.00;3.00;;;;;13.14;60.00;99394.38;5074746;28;45771;-60
2021/12/28 10:13:00;;;;;;;;;5.67;2.00;;;;;13.14;58.95;99392.59;5062889;28;45477;-61
2021/12/28 10:15:31;;;;;;;;;8.67;5.00;;;;;13.22;58.49;99412.19;5074833;28;45615;-60
2021/12/28 10:17:59;;;;;;;;;3.00;3.00;;;;;13.25;59.29;99422.91;5058530;28;45424;-59
2021/12/28 10:20:29;;;;;;;;;4.00;2.33;;;;;13.17;58.68;99418.50;5054727;28;45509;-58
2021/12/28 10:22:58;;;;;;;;;6.00;2.00;;;;;13.14;58.57;99413.16;5054376;28;45370;-60
2021/12/28 10:25:27;;;;;;;;;7.00;2.00;;;;;13.23;59.28;99442.59;5054776;28;45312;-60
2021/12/28 10:27:59;;;;;;;;;1.33;1.33;;;;;13.25;58.83;99438.13;5058679;28;46287;-59
2021/12/28 10:30:26;;;;;;;;;4.33;4.00;;;;;13.24;58.05;99439.91;5064293;28;45513;-59
2021/12/28 10:32:55;;;;;;;;;7.33;3.00;;;;;13.24;58.18;99445.25;5074543;28;45560;-59
2021/12/28 10:35:28;;;;;;;;;6.00;2.00;;;;;13.22;57.91;99448.88;5063796;28;45363;-59
2021/12/28 10:38:00;;;;;;;;;5.00;2.00;;;;;13.22;58.09;99440.81;5074061;28;46146;-58
2021/12/28 10:40:35;;;;;;;;;3.33;2.00;;;;;13.24;57.57;99449.75;5061581;28;46668;-60
2021/12/28 10:43:05;;;;;;;;;2.33;2.00;;;;;13.24;57.38;99450.63;5082246;28;45047;-60
2021/12/28 10:45:42;;;;;;;;;7.00;2.00;;;;;13.25;58.11;99460.47;5072503;28;44990;-60
2021/12/28 10:48:09;;;;;;;;;3.33;3.33;;;;;13.23;57.94;99450.63;5090028;28;45811;-61
2021/12/28 10:51:05;;;;;;;;;6.33;4.33;;;;;13.27;58.40;99465.81;5090862;28;45122;-59
2021/12/28 10:56:33;;;;;;;;;7.00;5.00;;;;;13.29;57.82;99455.97;5071732;27;46131;-60
2021/12/28 10:58:58;;;;;;;;;8.67;5.00;;;;;13.33;57.59;99465.84;5054137;28;46508;-60
2021/12/28 11:01:27;;;;;;;;;10.00;3.67;;;;;13.35;57.07;99482.81;5053494;28;45384;-61
2021/12/28 11:03:55;;;;;;;;;3.00;3.00;;;;;13.36;58.02;99470.28;5053377;28;45431;-60
2021/12/28 11:06:27;;;;;;;;;3.67;3.67;;;;;13.12;57.64;99434.63;5053298;28;45639;-60
2021/12/28 11:09:23;;;;;;;;;4.00;4.00;;;;;13.35;57.43;99468.50;5052745;28;45556;-59
2021/12/28 11:11:51;;;;;;;;;16.67;6.00;;;;;13.37;56.86;99472.94;5059918;28;45537;-61
2021/12/28 11:14:19;;;;;;;;;6.00;4.00;;;;;13.38;57.21;99479.19;5062013;28;45494;-60
2021/12/28 11:16:54;;;;;;;;;4.00;2.33;;;;;13.37;57.25;99482.78;5054081;28;45496;-60
2021/12/28 11:19:38;;;;;;;;;7.00;3.33;;;;;13.35;57.36;99485.47;5066531;28;45344;-60
2021/12/28 11:22:07;;;;;;;;;16.00;6.33;;;;;13.32;56.60;99482.81;5077111;28;45037;-59
2021/12/28 11:24:39;;;;;;;;;7.00;5.00;;;;;13.34;56.79;99496.22;5070904;28;45013;-62
2021/12/28 11:27:06;;;;;;;;;7.00;4.00;;;;;13.26;57.18;99485.47;5070528;28;44942;-61
2021/12/28 11:29:37;;;;;;;;;10.33;8.33;;;;;13.35;56.77;99504.25;5052408;28;46562;-62
2021/12/28 11:32:05;;;;;;;;;7.00;4.00;;;;;13.39;56.58;99516.75;5073762;28;45111;-61
2021/12/28 11:34:36;;;;;;;;;6.00;3.00;;;;;13.43;56.45;99513.16;5088374;28;45240;-61